SBPL

Details ICAO SBPL (PNZ)
Name SENADOR NILO COELHO
Region Brazil
Timezone America/Recife (UTC-3.0)
Plans Departing 45
Arriving 47
Stats Elevation 1,263 ft / 385 m (AMSL)
Location -9.362412° -40.569099°
Runways 1
Magnetic Variation 22.601° W
Sunrise 2018-05-27 08:52:00 UTC / 2018-05-27 05:52:00 Local
Sunset 2018-05-27 20:29:46 UTC / 2018-05-27 17:29:46 Local
Advertisement - Login to hide

Runways

ID Width Length Bearing (true) Bearing (mag) Surface Threshold Offset Overrun Length
13 140 ft / 43 m 10,642 ft / 3,244 m 109.17° 131.77° Asphalt 1,605 ft / 489 m 0 ft / 0 m
31 140 ft / 43 m 10,642 ft / 3,244 m 289.16° 311.76° Asphalt 0 ft / 0 m 0 ft / 0 m

Map

Weather


0- 5 10 15 20 25 30 35+ Temperature / ° C

Clouds and Precipitation
Forecast for 2018-05-27 12:00 UTC. Updated 42 minutes ago

Ground ~20,000 ft ~40,000 ft Winds

METAR

SBPL 271200Z 13014KT 9999 FEW025 25/17 Q1019

TAF

TAF SBPL 270300Z 2706/2806 14008KT 9999 SCT025 TN21/2708Z TX30/2718Z BECMG 2707/2709 BKN025 BECMG 2715/2717 SCT030 RMK PEU

Frequencies

Tower 125.70 MHz RDO
Warning: Do not use this data for real-world aviation or navigation. No guarantee of current accuracy is given.